sensor_id;sensor_type;location;lat;lon;timestamp;P1;durP1;ratioP1;P2;durP2;ratioP2
8486;SDS011;4280;50.534;8.708;2024-02-15T00:00:51;41.57;;;20.97;;
8486;SDS011;4280;50.534;8.708;2024-02-15T00:03:18;39.03;;;21.17;;
8486;SDS011;4280;50.534;8.708;2024-02-15T00:05:45;38.63;;;20.10;;
8486;SDS011;4280;50.534;8.708;2024-02-15T00:08:11;45.33;;;18.73;;
8486;SDS011;4280;50.534;8.708;2024-02-15T00:10:37;35.20;;;19.53;;
8486;SDS011;4280;50.534;8.708;2024-02-15T00:13:03;36.40;;;19.30;;
8486;SDS011;4280;50.534;8.708;2024-02-15T00:15:31;35.83;;;18.57;;
8486;SDS011;4280;50.534;8.708;2024-02-15T00:17:58;35.10;;;19.07;;
8486;SDS011;4280;50.534;8.708;2024-02-15T00:20:24;32.03;;;17.30;;
8486;SDS011;4280;50.534;8.708;2024-02-15T00:22:49;34.43;;;18.87;;
8486;SDS011;4280;50.534;8.708;2024-02-15T00:25:17;32.37;;;17.20;;
8486;SDS011;4280;50.534;8.708;2024-02-15T00:27:44;33.27;;;18.47;;
8486;SDS011;4280;50.534;8.708;2024-02-15T00:30:10;32.20;;;18.47;;
8486;SDS011;4280;50.534;8.708;2024-02-15T00:32:36;35.43;;;18.30;;
8486;SDS011;4280;50.534;8.708;2024-02-15T00:35:03;33.77;;;19.07;;
8486;SDS011;4280;50.534;8.708;2024-02-15T00:37:34;35.13;;;17.47;;
8486;SDS011;4280;50.534;8.708;2024-02-15T00:40:00;35.33;;;17.87;;
8486;SDS011;4280;50.534;8.708;2024-02-15T00:42:28;39.77;;;21.40;;
8486;SDS011;4280;50.534;8.708;2024-02-15T00:44:56;46.90;;;22.50;;
8486;SDS011;4280;50.534;8.708;2024-02-15T00:47:22;66.50;;;26.93;;
8486;SDS011;4280;50.534;8.708;2024-02-15T00:49:48;46.50;;;22.80;;
8486;SDS011;4280;50.534;8.708;2024-02-15T00:52:17;53.07;;;25.53;;
8486;SDS011;4280;50.534;8.708;2024-02-15T00:54:44;56.40;;;25.33;;
8486;SDS011;4280;50.534;8.708;2024-02-15T00:57:10;62.60;;;25.70;;
8486;SDS011;4280;50.534;8.708;2024-02-15T00:59:36;53.40;;;25.80;;
8486;SDS011;4280;50.534;8.708;2024-02-15T01:02:02;60.37;;;26.03;;
8486;SDS011;4280;50.534;8.708;2024-02-15T01:04:28;62.40;;;28.43;;
8486;SDS011;4280;50.534;8.708;2024-02-15T01:06:54;69.30;;;29.53;;
8486;SDS011;4280;50.534;8.708;2024-02-15T01:09:23;78.60;;;30.60;;
8486;SDS011;4280;50.534;8.708;2024-02-15T01:11:49;86.03;;;31.47;;
8486;SDS011;4280;50.534;8.708;2024-02-15T01:14:15;82.60;;;33.30;;
8486;SDS011;4280;50.534;8.708;2024-02-15T01:16:41;76.23;;;30.30;;
8486;SDS011;4280;50.534;8.708;2024-02-15T01:19:08;74.73;;;29.90;;
8486;SDS011;4280;50.534;8.708;2024-02-15T01:21:34;77.10;;;29.67;;
8486;SDS011;4280;50.534;8.708;2024-02-15T01:23:59;78.97;;;30.70;;
8486;SDS011;4280;50.534;8.708;2024-02-15T01:26:26;76.40;;;29.33;;
8486;SDS011;4280;50.534;8.708;2024-02-15T01:28:52;98.33;;;35.10;;
8486;SDS011;4280;50.534;8.708;2024-02-15T01:31:18;90.07;;;32.30;;
8486;SDS011;4280;50.534;8.708;2024-02-15T01:33:44;101.10;;;33.70;;
8486;SDS011;4280;50.534;8.708;2024-02-15T01:36:16;96.07;;;32.87;;
8486;SDS011;4280;50.534;8.708;2024-02-15T01:38:43;112.67;;;34.67;;
8486;SDS011;4280;50.534;8.708;2024-02-15T01:41:09;89.53;;;33.10;;
8486;SDS011;4280;50.534;8.708;2024-02-15T01:43:35;127.37;;;36.07;;
8486;SDS011;4280;50.534;8.708;2024-02-15T01:46:02;120.70;;;37.30;;
8486;SDS011;4280;50.534;8.708;2024-02-15T01:48:33;130.30;;;36.60;;
8486;SDS011;4280;50.534;8.708;2024-02-15T01:51:01;111.77;;;35.50;;
8486;SDS011;4280;50.534;8.708;2024-02-15T01:53:28;113.30;;;36.17;;
8486;SDS011;4280;50.534;8.708;2024-02-15T01:55:55;114.73;;;35.73;;
8486;SDS011;4280;50.534;8.708;2024-02-15T01:58:28;111.83;;;37.13;;
8486;SDS011;4280;50.534;8.708;2024-02-15T02:00:57;110.93;;;35.23;;
8486;SDS011;4280;50.534;8.708;2024-02-15T02:03:25;121.87;;;35.93;;
8486;SDS011;4280;50.534;8.708;2024-02-15T02:05:50;112.87;;;34.70;;
8486;SDS011;4280;50.534;8.708;2024-02-15T02:08:16;121.90;;;37.60;;
8486;SDS011;4280;50.534;8.708;2024-02-15T02:10:42;114.53;;;38.60;;
8486;SDS011;4280;50.534;8.708;2024-02-15T02:13:08;140.77;;;39.37;;
8486;SDS011;4280;50.534;8.708;2024-02-15T02:15:34;97.47;;;35.80;;
8486;SDS011;4280;50.534;8.708;2024-02-15T02:18:02;113.50;;;34.93;;
8486;SDS011;4280;50.534;8.708;2024-02-15T02:20:33;85.70;;;31.90;;
8486;SDS011;4280;50.534;8.708;2024-02-15T02:23:03;96.83;;;34.97;;
8486;SDS011;4280;50.534;8.708;2024-02-15T02:25:38;96.57;;;33.80;;
8486;SDS011;4280;50.534;8.708;2024-02-15T02:28:05;95.77;;;32.60;;
8486;SDS011;4280;50.534;8.708;2024-02-15T02:30:31;106.40;;;35.17;;
8486;SDS011;4280;50.534;8.708;2024-02-15T02:32:57;106.60;;;36.40;;
8486;SDS011;4280;50.534;8.708;2024-02-15T02:35:24;101.57;;;34.30;;
8486;SDS011;4280;50.534;8.708;2024-02-15T02:37:50;100.00;;;35.07;;
8486;SDS011;4280;50.534;8.708;2024-02-15T02:40:18;107.77;;;34.13;;
8486;SDS011;4280;50.534;8.708;2024-02-15T02:42:48;103.67;;;34.70;;
8486;SDS011;4280;50.534;8.708;2024-02-15T02:45:27;107.43;;;36.53;;
8486;SDS011;4280;50.534;8.708;2024-02-15T02:47:53;91.70;;;33.80;;
8486;SDS011;4280;50.534;8.708;2024-02-15T02:50:19;101.73;;;34.93;;
8486;SDS011;4280;50.534;8.708;2024-02-15T02:52:47;99.87;;;35.40;;
8486;SDS011;4280;50.534;8.708;2024-02-15T02:55:13;94.90;;;34.50;;
8486;SDS011;4280;50.534;8.708;2024-02-15T02:57:40;77.73;;;32.50;;
8486;SDS011;4280;50.534;8.708;2024-02-15T03:00:07;99.27;;;35.70;;
8486;SDS011;4280;50.534;8.708;2024-02-15T03:02:47;87.57;;;34.60;;
8486;SDS011;4280;50.534;8.708;2024-02-15T03:05:13;76.37;;;30.17;;
8486;SDS011;4280;50.534;8.708;2024-02-15T03:07:39;88.63;;;33.33;;
8486;SDS011;4280;50.534;8.708;2024-02-15T03:10:06;83.20;;;31.50;;
8486;SDS011;4280;50.534;8.708;2024-02-15T03:12:38;88.30;;;33.97;;
8486;SDS011;4280;50.534;8.708;2024-02-15T03:15:05;80.37;;;32.47;;
8486;SDS011;4280;50.534;8.708;2024-02-15T03:17:43;73.67;;;31.20;;
8486;SDS011;4280;50.534;8.708;2024-02-15T03:20:11;83.10;;;33.50;;
8486;SDS011;4280;50.534;8.708;2024-02-15T03:22:55;77.00;;;31.97;;
8486;SDS011;4280;50.534;8.708;2024-02-15T03:25:22;79.90;;;31.67;;
8486;SDS011;4280;50.534;8.708;2024-02-15T03:27:49;83.03;;;33.33;;
8486;SDS011;4280;50.534;8.708;2024-02-15T03:30:20;71.33;;;30.87;;
8486;SDS011;4280;50.534;8.708;2024-02-15T03:32:50;73.27;;;31.70;;
8486;SDS011;4280;50.534;8.708;2024-02-15T03:35:17;69.33;;;31.27;;
8486;SDS011;4280;50.534;8.708;2024-02-15T03:37:47;75.47;;;33.93;;
8486;SDS011;4280;50.534;8.708;2024-02-15T03:40:16;69.33;;;32.17;;
8486;SDS011;4280;50.534;8.708;2024-02-15T03:42:44;74.73;;;33.80;;
8486;SDS011;4280;50.534;8.708;2024-02-15T03:45:10;68.40;;;30.90;;
8486;SDS011;4280;50.534;8.708;2024-02-15T03:47:38;65.07;;;30.80;;
8486;SDS011;4280;50.534;8.708;2024-02-15T03:50:04;72.97;;;32.40;;
8486;SDS011;4280;50.534;8.708;2024-02-15T03:52:33;86.40;;;35.40;;
8486;SDS011;4280;50.534;8.708;2024-02-15T03:54:59;81.63;;;34.97;;
8486;SDS011;4280;50.534;8.708;2024-02-15T03:57:28;98.83;;;38.60;;
8486;SDS011;4280;50.534;8.708;2024-02-15T03:59:54;102.83;;;37.73;;
8486;SDS011;4280;50.534;8.708;2024-02-15T04:02:22;116.33;;;38.27;;
8486;SDS011;4280;50.534;8.708;2024-02-15T04:04:53;110.63;;;39.27;;
8486;SDS011;4280;50.534;8.708;2024-02-15T04:07:20;116.83;;;39.80;;
8486;SDS011;4280;50.534;8.708;2024-02-15T04:09:51;108.90;;;38.87;;
8486;SDS011;4280;50.534;8.708;2024-02-15T04:12:17;106.70;;;37.37;;
8486;SDS011;4280;50.534;8.708;2024-02-15T04:14:44;103.57;;;38.17;;
8486;SDS011;4280;50.534;8.708;2024-02-15T04:17:10;111.17;;;37.87;;
8486;SDS011;4280;50.534;8.708;2024-02-15T04:19:39;115.60;;;39.57;;
8486;SDS011;4280;50.534;8.708;2024-02-15T04:22:05;116.83;;;38.90;;
8486;SDS011;4280;50.534;8.708;2024-02-15T04:24:32;115.03;;;39.80;;
8486;SDS011;4280;50.534;8.708;2024-02-15T04:26:59;121.83;;;40.10;;
8486;SDS011;4280;50.534;8.708;2024-02-15T04:29:25;127.80;;;39.50;;
8486;SDS011;4280;50.534;8.708;2024-02-15T04:31:51;120.43;;;38.10;;
8486;SDS011;4280;50.534;8.708;2024-02-15T04:34:19;127.90;;;40.00;;
8486;SDS011;4280;50.534;8.708;2024-02-15T04:36:47;123.33;;;40.30;;
8486;SDS011;4280;50.534;8.708;2024-02-15T04:39:16;116.77;;;40.40;;
8486;SDS011;4280;50.534;8.708;2024-02-15T04:41:52;131.13;;;41.97;;
8486;SDS011;4280;50.534;8.708;2024-02-15T04:44:18;154.37;;;44.17;;
8486;SDS011;4280;50.534;8.708;2024-02-15T04:46:51;151.73;;;43.30;;
8486;SDS011;4280;50.534;8.708;2024-02-15T04:49:18;133.17;;;40.17;;
8486;SDS011;4280;50.534;8.708;2024-02-15T04:51:45;167.73;;;43.23;;
8486;SDS011;4280;50.534;8.708;2024-02-15T04:54:12;144.20;;;44.50;;
8486;SDS011;4280;50.534;8.708;2024-02-15T04:56:38;123.17;;;41.70;;
8486;SDS011;4280;50.534;8.708;2024-02-15T04:59:05;128.33;;;42.60;;
8486;SDS011;4280;50.534;8.708;2024-02-15T05:01:34;121.57;;;41.90;;
8486;SDS011;4280;50.534;8.708;2024-02-15T05:04:00;132.60;;;43.27;;
8486;SDS011;4280;50.534;8.708;2024-02-15T05:06:29;134.23;;;43.33;;
8486;SDS011;4280;50.534;8.708;2024-02-15T05:08:55;119.73;;;40.80;;
8486;SDS011;4280;50.534;8.708;2024-02-15T05:11:22;136.33;;;43.30;;
8486;SDS011;4280;50.534;8.708;2024-02-15T05:13:48;135.63;;;43.70;;
8486;SDS011;4280;50.534;8.708;2024-02-15T05:16:16;135.53;;;42.00;;
8486;SDS011;4280;50.534;8.708;2024-02-15T05:18:42;139.43;;;42.73;;
8486;SDS011;4280;50.534;8.708;2024-02-15T05:21:07;137.47;;;44.50;;
8486;SDS011;4280;50.534;8.708;2024-02-15T05:23:34;139.00;;;46.93;;
8486;SDS011;4280;50.534;8.708;2024-02-15T05:26:01;124.33;;;45.80;;
8486;SDS011;4280;50.534;8.708;2024-02-15T05:28:28;163.27;;;47.97;;
8486;SDS011;4280;50.534;8.708;2024-02-15T05:31:14;157.80;;;53.13;;
8486;SDS011;4280;50.534;8.708;2024-02-15T05:33:43;134.30;;;44.17;;
8486;SDS011;4280;50.534;8.708;2024-02-15T05:36:10;129.07;;;44.57;;
8486;SDS011;4280;50.534;8.708;2024-02-15T05:38:36;130.80;;;43.20;;
8486;SDS011;4280;50.534;8.708;2024-02-15T05:41:02;141.80;;;48.97;;
8486;SDS011;4280;50.534;8.708;2024-02-15T05:43:28;122.27;;;42.67;;
8486;SDS011;4280;50.534;8.708;2024-02-15T05:45:55;127.23;;;42.97;;
8486;SDS011;4280;50.534;8.708;2024-02-15T05:48:23;127.37;;;41.87;;
8486;SDS011;4280;50.534;8.708;2024-02-15T05:50:48;122.87;;;41.10;;
8486;SDS011;4280;50.534;8.708;2024-02-15T05:53:14;125.93;;;41.37;;
8486;SDS011;4280;50.534;8.708;2024-02-15T05:55:40;122.03;;;41.70;;
8486;SDS011;4280;50.534;8.708;2024-02-15T05:58:09;121.80;;;40.03;;
8486;SDS011;4280;50.534;8.708;2024-02-15T06:00:36;135.17;;;42.47;;
8486;SDS011;4280;50.534;8.708;2024-02-15T06:03:04;123.53;;;42.40;;
8486;SDS011;4280;50.534;8.708;2024-02-15T06:05:31;116.67;;;39.33;;
8486;SDS011;4280;50.534;8.708;2024-02-15T06:07:57;162.23;;;49.17;;
8486;SDS011;4280;50.534;8.708;2024-02-15T06:10:24;122.30;;;40.30;;
8486;SDS011;4280;50.534;8.708;2024-02-15T06:12:50;106.67;;;36.90;;
8486;SDS011;4280;50.534;8.708;2024-02-15T06:15:16;116.57;;;39.97;;
8486;SDS011;4280;50.534;8.708;2024-02-15T06:17:42;94.93;;;37.60;;
8486;SDS011;4280;50.534;8.708;2024-02-15T06:20:14;111.10;;;38.90;;
8486;SDS011;4280;50.534;8.708;2024-02-15T06:22:42;108.10;;;40.80;;
8486;SDS011;4280;50.534;8.708;2024-02-15T06:25:09;122.57;;;41.47;;
8486;SDS011;4280;50.534;8.708;2024-02-15T06:27:36;97.00;;;38.10;;
8486;SDS011;4280;50.534;8.708;2024-02-15T06:30:06;101.13;;;40.30;;
8486;SDS011;4280;50.534;8.708;2024-02-15T06:32:56;94.90;;;38.00;;
8486;SDS011;4280;50.534;8.708;2024-02-15T06:35:41;105.17;;;41.20;;
8486;SDS011;4280;50.534;8.708;2024-02-15T06:38:26;96.47;;;41.43;;
8486;SDS011;4280;50.534;8.708;2024-02-15T06:41:11;98.77;;;41.80;;
8486;SDS011;4280;50.534;8.708;2024-02-15T06:43:38;110.43;;;43.70;;
8486;SDS011;4280;50.534;8.708;2024-02-15T06:46:07;111.03;;;43.67;;
8486;SDS011;4280;50.534;8.708;2024-02-15T06:48:33;106.13;;;44.07;;
8486;SDS011;4280;50.534;8.708;2024-02-15T06:50:59;119.63;;;47.37;;
8486;SDS011;4280;50.534;8.708;2024-02-15T06:53:25;98.63;;;43.40;;
8486;SDS011;4280;50.534;8.708;2024-02-15T06:55:50;92.77;;;41.17;;
8486;SDS011;4280;50.534;8.708;2024-02-15T06:58:17;88.80;;;41.20;;
8486;SDS011;4280;50.534;8.708;2024-02-15T07:00:43;100.63;;;39.47;;
8486;SDS011;4280;50.534;8.708;2024-02-15T07:03:09;88.90;;;40.13;;
8486;SDS011;4280;50.534;8.708;2024-02-15T07:05:38;99.83;;;39.07;;
8486;SDS011;4280;50.534;8.708;2024-02-15T07:08:04;92.17;;;39.90;;
8486;SDS011;4280;50.534;8.708;2024-02-15T07:10:31;79.93;;;38.00;;
8486;SDS011;4280;50.534;8.708;2024-02-15T07:12:57;90.10;;;38.83;;
8486;SDS011;4280;50.534;8.708;2024-02-15T07:15:22;94.53;;;40.53;;
8486;SDS011;4280;50.534;8.708;2024-02-15T07:17:48;70.20;;;36.67;;
8486;SDS011;4280;50.534;8.708;2024-02-15T07:20:14;77.10;;;36.53;;
8486;SDS011;4280;50.534;8.708;2024-02-15T07:22:42;66.77;;;33.03;;
8486;SDS011;4280;50.534;8.708;2024-02-15T07:25:10;71.40;;;32.97;;
8486;SDS011;4280;50.534;8.708;2024-02-15T07:27:36;74.50;;;32.77;;
8486;SDS011;4280;50.534;8.708;2024-02-15T07:30:02;68.27;;;34.23;;
8486;SDS011;4280;50.534;8.708;2024-02-15T07:32:29;67.23;;;34.13;;
8486;SDS011;4280;50.534;8.708;2024-02-15T07:34:57;67.77;;;31.20;;
8486;SDS011;4280;50.534;8.708;2024-02-15T07:37:22;58.30;;;30.07;;
8486;SDS011;4280;50.534;8.708;2024-02-15T07:39:51;70.27;;;29.47;;
8486;SDS011;4280;50.534;8.708;2024-02-15T07:42:20;63.33;;;30.67;;
8486;SDS011;4280;50.534;8.708;2024-02-15T07:44:50;53.77;;;27.00;;
8486;SDS011;4280;50.534;8.708;2024-02-15T07:47:17;50.13;;;24.57;;
8486;SDS011;4280;50.534;8.708;2024-02-15T07:49:46;51.30;;;24.70;;
8486;SDS011;4280;50.534;8.708;2024-02-15T07:52:11;46.97;;;24.50;;
8486;SDS011;4280;50.534;8.708;2024-02-15T07:54:38;44.43;;;22.33;;
8486;SDS011;4280;50.534;8.708;2024-02-15T07:57:04;43.87;;;22.13;;
8486;SDS011;4280;50.534;8.708;2024-02-15T07:59:30;35.60;;;20.23;;
8486;SDS011;4280;50.534;8.708;2024-02-15T08:02:00;46.07;;;20.87;;
8486;SDS011;4280;50.534;8.708;2024-02-15T08:04:26;49.47;;;22.10;;
8486;SDS011;4280;50.534;8.708;2024-02-15T08:06:53;37.03;;;20.30;;
8486;SDS011;4280;50.534;8.708;2024-02-15T08:09:20;43.23;;;21.53;;
8486;SDS011;4280;50.534;8.708;2024-02-15T08:11:49;38.13;;;20.27;;
8486;SDS011;4280;50.534;8.708;2024-02-15T08:14:15;34.63;;;19.20;;
8486;SDS011;4280;50.534;8.708;2024-02-15T08:16:40;36.03;;;20.40;;
8486;SDS011;4280;50.534;8.708;2024-02-15T08:19:06;27.97;;;17.40;;
8486;SDS011;4280;50.534;8.708;2024-02-15T08:21:33;35.17;;;18.47;;
8486;SDS011;4280;50.534;8.708;2024-02-15T08:24:04;28.33;;;17.10;;
8486;SDS011;4280;50.534;8.708;2024-02-15T08:26:35;40.50;;;16.20;;
8486;SDS011;4280;50.534;8.708;2024-02-15T08:29:06;33.63;;;19.67;;
8486;SDS011;4280;50.534;8.708;2024-02-15T08:31:32;30.37;;;16.70;;
8486;SDS011;4280;50.534;8.708;2024-02-15T08:34:01;32.17;;;17.33;;
8486;SDS011;4280;50.534;8.708;2024-02-15T08:36:30;43.87;;;23.90;;
8486;SDS011;4280;50.534;8.708;2024-02-15T08:38:56;29.53;;;14.73;;
8486;SDS011;4280;50.534;8.708;2024-02-15T08:41:21;28.93;;;16.27;;
8486;SDS011;4280;50.534;8.708;2024-02-15T08:43:51;28.70;;;17.37;;
8486;SDS011;4280;50.534;8.708;2024-02-15T08:46:17;24.23;;;14.57;;
8486;SDS011;4280;50.534;8.708;2024-02-15T08:48:44;31.30;;;14.47;;
8486;SDS011;4280;50.534;8.708;2024-02-15T08:51:11;21.43;;;14.20;;
8486;SDS011;4280;50.534;8.708;2024-02-15T08:53:37;26.80;;;14.57;;
8486;SDS011;4280;50.534;8.708;2024-02-15T08:56:06;24.50;;;13.53;;
8486;SDS011;4280;50.534;8.708;2024-02-15T08:58:35;22.80;;;13.93;;
8486;SDS011;4280;50.534;8.708;2024-02-15T09:01:00;34.27;;;15.10;;
8486;SDS011;4280;50.534;8.708;2024-02-15T09:03:27;27.90;;;13.40;;
8486;SDS011;4280;50.534;8.708;2024-02-15T09:05:53;23.23;;;13.73;;
8486;SDS011;4280;50.534;8.708;2024-02-15T09:08:19;27.23;;;13.27;;
8486;SDS011;4280;50.534;8.708;2024-02-15T09:10:46;26.40;;;11.53;;
8486;SDS011;4280;50.534;8.708;2024-02-15T09:13:14;27.23;;;12.00;;
8486;SDS011;4280;50.534;8.708;2024-02-15T09:15:40;25.13;;;12.20;;
8486;SDS011;4280;50.534;8.708;2024-02-15T09:18:06;21.70;;;11.83;;
8486;SDS011;4280;50.534;8.708;2024-02-15T09:20:34;19.43;;;10.97;;
8486;SDS011;4280;50.534;8.708;2024-02-15T09:23:02;20.40;;;12.00;;
8486;SDS011;4280;50.534;8.708;2024-02-15T09:25:34;30.53;;;11.37;;
8486;SDS011;4280;50.534;8.708;2024-02-15T09:28:03;16.27;;;9.93;;
8486;SDS011;4280;50.534;8.708;2024-02-15T09:30:28;23.97;;;11.60;;
8486;SDS011;4280;50.534;8.708;2024-02-15T09:32:56;19.87;;;10.70;;
8486;SDS011;4280;50.534;8.708;2024-02-15T09:35:22;24.17;;;10.30;;
8486;SDS011;4280;50.534;8.708;2024-02-15T09:37:49;23.17;;;10.93;;
8486;SDS011;4280;50.534;8.708;2024-02-15T09:40:15;18.77;;;9.30;;
8486;SDS011;4280;50.534;8.708;2024-02-15T09:42:43;12.83;;;8.23;;
8486;SDS011;4280;50.534;8.708;2024-02-15T09:45:10;29.30;;;9.07;;
8486;SDS011;4280;50.534;8.708;2024-02-15T09:47:38;16.80;;;8.63;;
8486;SDS011;4280;50.534;8.708;2024-02-15T09:50:07;19.47;;;8.90;;
8486;SDS011;4280;50.534;8.708;2024-02-15T09:52:45;16.43;;;8.83;;
8486;SDS011;4280;50.534;8.708;2024-02-15T09:55:19;14.23;;;8.13;;
8486;SDS011;4280;50.534;8.708;2024-02-15T09:57:48;14.37;;;7.77;;
8486;SDS011;4280;50.534;8.708;2024-02-15T10:00:15;18.73;;;7.70;;
8486;SDS011;4280;50.534;8.708;2024-02-15T10:02:47;19.67;;;9.03;;
8486;SDS011;4280;50.534;8.708;2024-02-15T10:05:17;20.57;;;9.50;;
8486;SDS011;4280;50.534;8.708;2024-02-15T10:07:43;14.60;;;8.10;;
8486;SDS011;4280;50.534;8.708;2024-02-15T10:12:46;17.63;;;8.57;;
8486;SDS011;4280;50.534;8.708;2024-02-15T10:15:55;10.87;;;7.57;;
8486;SDS011;4280;50.534;8.708;2024-02-15T10:20:37;10.00;;;7.27;;
8486;SDS011;4280;50.534;8.708;2024-02-15T10:25:33;9.13;;;6.50;;
8486;SDS011;4280;50.534;8.708;2024-02-15T10:28:10;19.07;;;7.17;;
8486;SDS011;4280;50.534;8.708;2024-02-15T10:30:38;10.77;;;5.97;;
8486;SDS011;4280;50.534;8.708;2024-02-15T10:33:08;8.50;;;6.00;;
8486;SDS011;4280;50.534;8.708;2024-02-15T10:35:34;9.27;;;6.30;;
8486;SDS011;4280;50.534;8.708;2024-02-15T10:38:10;11.13;;;6.77;;
8486;SDS011;4280;50.534;8.708;2024-02-15T10:40:38;12.37;;;5.90;;
8486;SDS011;4280;50.534;8.708;2024-02-15T10:43:08;10.87;;;6.23;;
8486;SDS011;4280;50.534;8.708;2024-02-15T10:45:38;19.30;;;5.70;;
8486;SDS011;4280;50.534;8.708;2024-02-15T10:48:07;10.70;;;5.53;;
8486;SDS011;4280;50.534;8.708;2024-02-15T10:50:34;14.83;;;6.40;;
8486;SDS011;4280;50.534;8.708;2024-02-15T10:53:00;7.47;;;5.40;;
8486;SDS011;4280;50.534;8.708;2024-02-15T10:55:42;11.80;;;5.17;;
8486;SDS011;4280;50.534;8.708;2024-02-15T10:58:35;14.10;;;5.43;;
8486;SDS011;4280;50.534;8.708;2024-02-15T11:01:13;10.67;;;5.23;;
8486;SDS011;4280;50.534;8.708;2024-02-15T11:03:52;11.63;;;5.20;;
8486;SDS011;4280;50.534;8.708;2024-02-15T11:06:30;20.33;;;5.07;;
8486;SDS011;4280;50.534;8.708;2024-02-15T11:09:00;15.90;;;6.00;;
8486;SDS011;4280;50.534;8.708;2024-02-15T11:11:29;11.27;;;5.03;;
8486;SDS011;4280;50.534;8.708;2024-02-15T11:14:22;10.27;;;4.77;;
8486;SDS011;4280;50.534;8.708;2024-02-15T11:16:52;9.10;;;5.27;;
8486;SDS011;4280;50.534;8.708;2024-02-15T11:22:08;14.23;;;4.93;;
8486;SDS011;4280;50.534;8.708;2024-02-15T11:24:36;10.43;;;4.60;;
8486;SDS011;4280;50.534;8.708;2024-02-15T11:27:03;8.70;;;4.70;;
8486;SDS011;4280;50.534;8.708;2024-02-15T11:35:10;6.67;;;4.40;;
8486;SDS011;4280;50.534;8.708;2024-02-15T11:40:13;16.00;;;4.87;;
8486;SDS011;4280;50.534;8.708;2024-02-15T11:42:44;16.53;;;6.70;;
8486;SDS011;4280;50.534;8.708;2024-02-15T11:45:11;22.43;;;7.27;;
8486;SDS011;4280;50.534;8.708;2024-02-15T11:47:38;12.03;;;5.53;;
8486;SDS011;4280;50.534;8.708;2024-02-15T11:50:07;17.83;;;5.33;;
8486;SDS011;4280;50.534;8.708;2024-02-15T11:52:39;10.50;;;5.00;;
8486;SDS011;4280;50.534;8.708;2024-02-15T11:55:10;12.40;;;5.20;;
8486;SDS011;4280;50.534;8.708;2024-02-15T11:57:41;10.27;;;4.70;;
8486;SDS011;4280;50.534;8.708;2024-02-15T12:00:23;13.60;;;5.53;;
8486;SDS011;4280;50.534;8.708;2024-02-15T12:03:08;7.27;;;4.60;;
8486;SDS011;4280;50.534;8.708;2024-02-15T12:05:57;9.40;;;5.00;;
8486;SDS011;4280;50.534;8.708;2024-02-15T12:08:44;8.53;;;4.23;;
8486;SDS011;4280;50.534;8.708;2024-02-15T12:11:30;13.00;;;4.90;;
8486;SDS011;4280;50.534;8.708;2024-02-15T12:14:15;12.37;;;4.97;;
8486;SDS011;4280;50.534;8.708;2024-02-15T12:19:47;8.07;;;4.93;;
8486;SDS011;4280;50.534;8.708;2024-02-15T12:22:19;11.47;;;4.80;;
8486;SDS011;4280;50.534;8.708;2024-02-15T12:25:12;11.07;;;4.80;;
8486;SDS011;4280;50.534;8.708;2024-02-15T12:27:41;7.13;;;4.03;;
8486;SDS011;4280;50.534;8.708;2024-02-15T12:30:15;9.70;;;4.37;;
8486;SDS011;4280;50.534;8.708;2024-02-15T12:32:50;9.20;;;4.13;;
8486;SDS011;4280;50.534;8.708;2024-02-15T12:35:17;8.07;;;4.07;;
8486;SDS011;4280;50.534;8.708;2024-02-15T12:37:46;10.87;;;4.30;;
8486;SDS011;4280;50.534;8.708;2024-02-15T12:40:19;8.83;;;3.90;;
8486;SDS011;4280;50.534;8.708;2024-02-15T12:42:47;13.43;;;4.83;;
8486;SDS011;4280;50.534;8.708;2024-02-15T12:45:16;16.90;;;3.27;;
8486;SDS011;4280;50.534;8.708;2024-02-15T12:47:45;10.83;;;3.87;;
8486;SDS011;4280;50.534;8.708;2024-02-15T12:50:36;9.70;;;3.27;;
8486;SDS011;4280;50.534;8.708;2024-02-15T12:53:01;7.03;;;3.30;;
8486;SDS011;4280;50.534;8.708;2024-02-15T12:55:34;9.47;;;4.00;;
8486;SDS011;4280;50.534;8.708;2024-02-15T12:58:05;11.90;;;3.80;;
8486;SDS011;4280;50.534;8.708;2024-02-15T13:00:38;9.30;;;3.60;;
8486;SDS011;4280;50.534;8.708;2024-02-15T13:03:05;8.33;;;3.00;;
8486;SDS011;4280;50.534;8.708;2024-02-15T13:05:35;13.20;;;3.20;;
8486;SDS011;4280;50.534;8.708;2024-02-15T13:08:02;9.60;;;4.07;;
8486;SDS011;4280;50.534;8.708;2024-02-15T13:10:35;10.63;;;3.70;;
8486;SDS011;4280;50.534;8.708;2024-02-15T13:13:01;13.90;;;5.87;;
8486;SDS011;4280;50.534;8.708;2024-02-15T13:15:27;22.47;;;8.67;;
8486;SDS011;4280;50.534;8.708;2024-02-15T13:17:57;17.43;;;7.53;;
8486;SDS011;4280;50.534;8.708;2024-02-15T13:20:24;9.57;;;4.43;;
8486;SDS011;4280;50.534;8.708;2024-02-15T13:22:58;9.93;;;3.07;;
8486;SDS011;4280;50.534;8.708;2024-02-15T13:25:33;5.30;;;3.10;;
8486;SDS011;4280;50.534;8.708;2024-02-15T13:28:01;13.83;;;2.90;;
8486;SDS011;4280;50.534;8.708;2024-02-15T13:30:29;8.13;;;3.30;;
8486;SDS011;4280;50.534;8.708;2024-02-15T13:32:55;8.17;;;3.00;;
8486;SDS011;4280;50.534;8.708;2024-02-15T13:35:21;10.40;;;3.00;;
8486;SDS011;4280;50.534;8.708;2024-02-15T13:40:19;6.80;;;2.97;;
8486;SDS011;4280;50.534;8.708;2024-02-15T13:42:54;9.87;;;3.13;;
8486;SDS011;4280;50.534;8.708;2024-02-15T13:45:24;14.53;;;3.40;;
8486;SDS011;4280;50.534;8.708;2024-02-15T13:47:57;6.30;;;3.27;;
8486;SDS011;4280;50.534;8.708;2024-02-15T13:50:27;6.93;;;3.00;;
8486;SDS011;4280;50.534;8.708;2024-02-15T13:52:54;5.50;;;2.90;;
8486;SDS011;4280;50.534;8.708;2024-02-15T13:55:20;4.90;;;2.23;;
8486;SDS011;4280;50.534;8.708;2024-02-15T13:57:46;8.43;;;3.10;;
8486;SDS011;4280;50.534;8.708;2024-02-15T14:00:16;4.20;;;2.60;;
8486;SDS011;4280;50.534;8.708;2024-02-15T14:02:50;6.40;;;2.60;;
8486;SDS011;4280;50.534;8.708;2024-02-15T14:05:21;7.00;;;2.90;;
8486;SDS011;4280;50.534;8.708;2024-02-15T14:07:51;8.60;;;2.77;;
8486;SDS011;4280;50.534;8.708;2024-02-15T14:10:23;14.13;;;4.33;;
8486;SDS011;4280;50.534;8.708;2024-02-15T14:12:57;5.87;;;2.70;;
8486;SDS011;4280;50.534;8.708;2024-02-15T14:15:49;15.73;;;3.77;;
8486;SDS011;4280;50.534;8.708;2024-02-15T14:18:14;9.40;;;2.77;;
8486;SDS011;4280;50.534;8.708;2024-02-15T14:20:44;9.63;;;2.70;;
8486;SDS011;4280;50.534;8.708;2024-02-15T14:23:13;6.83;;;3.00;;
8486;SDS011;4280;50.534;8.708;2024-02-15T14:25:39;7.57;;;2.70;;
8486;SDS011;4280;50.534;8.708;2024-02-15T14:28:05;12.63;;;3.33;;
8486;SDS011;4280;50.534;8.708;2024-02-15T14:30:35;9.70;;;2.80;;
8486;SDS011;4280;50.534;8.708;2024-02-15T14:33:19;12.47;;;3.40;;
8486;SDS011;4280;50.534;8.708;2024-02-15T14:35:47;9.60;;;3.67;;
8486;SDS011;4280;50.534;8.708;2024-02-15T14:38:13;3.93;;;2.30;;
8486;SDS011;4280;50.534;8.708;2024-02-15T14:40:42;4.90;;;2.37;;
8486;SDS011;4280;50.534;8.708;2024-02-15T14:43:15;8.60;;;2.50;;
8486;SDS011;4280;50.534;8.708;2024-02-15T14:45:42;7.67;;;2.87;;
8486;SDS011;4280;50.534;8.708;2024-02-15T14:48:08;11.63;;;2.80;;
8486;SDS011;4280;50.534;8.708;2024-02-15T14:50:38;20.80;;;5.30;;
8486;SDS011;4280;50.534;8.708;2024-02-15T14:53:05;7.80;;;3.10;;
8486;SDS011;4280;50.534;8.708;2024-02-15T14:55:32;8.00;;;3.00;;
8486;SDS011;4280;50.534;8.708;2024-02-15T14:57:59;8.57;;;3.00;;
8486;SDS011;4280;50.534;8.708;2024-02-15T15:00:25;7.03;;;2.80;;
8486;SDS011;4280;50.534;8.708;2024-02-15T15:02:52;6.83;;;3.00;;
8486;SDS011;4280;50.534;8.708;2024-02-15T15:05:21;10.83;;;3.40;;
8486;SDS011;4280;50.534;8.708;2024-02-15T15:08:06;12.13;;;3.30;;
8486;SDS011;4280;50.534;8.708;2024-02-15T15:10:50;12.83;;;3.30;;
8486;SDS011;4280;50.534;8.708;2024-02-15T15:13:35;18.17;;;3.67;;
8486;SDS011;4280;50.534;8.708;2024-02-15T15:16:01;9.83;;;3.73;;
8486;SDS011;4280;50.534;8.708;2024-02-15T15:18:31;9.20;;;3.90;;
8486;SDS011;4280;50.534;8.708;2024-02-15T15:20:57;6.87;;;3.73;;
8486;SDS011;4280;50.534;8.708;2024-02-15T15:23:24;12.57;;;3.43;;
8486;SDS011;4280;50.534;8.708;2024-02-15T15:25:51;11.60;;;3.50;;